ENFJ weather

Fedje Heliport, Høgden
Fedje, Hordaland, Norway

Public forecast

Using degrees Celsius for public forecast. Weather courtesy of forecast.io.

Closest aviation weather report (METAR) to Fedje Heliport, Høgden

Closest report is Troll A Platform, 30.5 nm (56.5 km) WSW. Retrieved 2020/08/08 22:20 UTC (27 minutes ago):

ENQA 082220Z AUTO 31004KT 9999NDV NCD 13/10 Q1027 W11/S3

Closest aviation forecast (TAF) to Fedje Heliport, Høgden

Closest forecast is Bergen Airport Flesland, 31.8 nm (58.8 km) SSE. Retrieved 2020/08/08 18:57 UTC (4 hours ago):

TAF ENBR 081700Z 0818/0918 33008KT 9999 FEW025 BECMG 0906/0908 34015G25KT